Time;durP1;ratioP1;P1;durP2;ratioP2;P2;SDS_P1;SDS_P2;PMS_P1;PMS_P2;Temp;Humidity;BMP_temperature;BMP_pressure;BME280_temperature;BME280_humidity;BME280_pressure;Samples;Min_cycle;Max_cycle;Signal;HPM_P1;HPM_P2
2024/01/07 00:00:01;;;;;;;;;;;;;;;8.25;52.56;96045.09;4183132;28;5740;-66
2024/01/07 00:02:04;;;;;;;;;;;;;;;8.28;52.26;96042.91;4175310;28;5917;-65
2024/01/07 00:04:08;;;;;;;;;;;;;;;8.35;52.49;96049.03;4183224;28;5562;-66
2024/01/07 00:06:11;;;;;;;;;;;;;;;8.32;52.66;96038.06;4183174;28;5878;-66
2024/01/07 00:08:14;;;;;;;;;;;;;;;8.29;52.81;96041.09;4182955;28;5761;-66
2024/01/07 00:10:17;;;;;;;;;;;;;;;8.29;52.74;96033.19;4182845;28;5872;-66
2024/01/07 00:12:20;;;;;;;;;;;;;;;8.29;52.96;96038.47;4184093;28;6010;-66
2024/01/07 00:14:22;;;;;;;;;;;;;;;8.33;52.86;96029.13;4186060;28;5702;-65
2024/01/07 00:16:25;;;;;;;;;;;;;;;8.39;52.89;96036.28;4186126;28;5106;-65
2024/01/07 00:18:27;;;;;;;;;;;;;;;8.34;52.55;96034.22;4185865;28;5748;-65
2024/01/07 00:20:32;;;;;;;;;;;;;;;8.39;52.66;96036.28;4186301;28;5979;-65
2024/01/07 00:22:34;;;;;;;;;;;;;;;8.33;52.87;96026.50;4186061;28;5087;-65
2024/01/07 00:24:37;;;;;;;;;;;;;;;8.21;53.09;96031.53;4185953;28;7730;-65
2024/01/07 00:26:40;;;;;;;;;;;;;;;8.18;53.23;96024.84;4186119;28;5727;-65
2024/01/07 00:28:42;;;;;;;;;;;;;;;8.24;53.24;96028.50;4186270;28;5838;-65
2024/01/07 00:30:46;;;;;;;;;;;;;;;8.30;52.90;96024.28;4186065;28;5752;-66
2024/01/07 00:32:51;;;;;;;;;;;;;;;8.36;53.31;96044.56;4186136;28;5805;-65
2024/01/07 00:34:54;;;;;;;;;;;;;;;8.29;53.13;96027.91;4182927;28;5866;-65
2024/01/07 00:36:59;;;;;;;;;;;;;;;8.29;53.14;96033.19;4185996;28;5719;-66
2024/01/07 00:39:02;;;;;;;;;;;;;;;8.24;53.58;96025.06;4177326;28;5707;-65
2024/01/07 00:41:04;;;;;;;;;;;;;;;8.24;53.13;96030.31;4185962;28;5788;-65
2024/01/07 00:43:07;;;;;;;;;;;;;;;8.22;53.57;96021.81;4185907;28;5748;-65
2024/01/07 00:45:11;;;;;;;;;;;;;;;8.25;53.57;96024.84;4185736;28;5744;-65
2024/01/07 00:47:13;;;;;;;;;;;;;;;8.32;53.12;96022.25;4185886;28;5130;-65
2024/01/07 00:49:16;;;;;;;;;;;;;;;8.25;53.17;96016.94;4185807;28;5819;-65
2024/01/07 00:51:20;;;;;;;;;;;;;;;8.28;53.31;96021.03;4185583;28;5737;-66
2024/01/07 00:53:23;;;;;;;;;;;;;;;8.28;53.36;96026.31;4185770;28;5855;-66
2024/01/07 00:55:26;;;;;;;;;;;;;;;8.29;53.61;96023.47;4185571;28;5763;-66
2024/01/07 00:57:28;;;;;;;;;;;;;;;8.27;53.55;96016.75;4185451;28;5774;-65
2024/01/07 00:59:31;;;;;;;;;;;;;;;8.23;53.84;96026.88;4185581;28;5811;-65
2024/01/07 01:01:33;;;;;;;;;;;;;;;8.22;54.11;96016.53;4185479;28;5827;-65
2024/01/07 01:03:36;;;;;;;;;;;;;;;8.21;54.08;96025.44;4185398;28;6378;-66
2024/01/07 01:05:39;;;;;;;;;;;;;;;8.14;54.36;96023.59;4185455;28;5767;-67
2024/01/07 01:07:42;;;;;;;;;;;;;;;8.06;54.83;96022.97;4185328;28;5751;-65
2024/01/07 01:09:45;;;;;;;;;;;;;;;8.03;54.83;96020.72;4184986;28;5934;-65
2024/01/07 01:11:49;;;;;;;;;;;;;;;8.09;54.79;96023.38;4185469;28;5803;-65
2024/01/07 01:13:51;;;;;;;;;;;;;;;8.10;54.90;96013.66;4185218;28;5809;-65
2024/01/07 01:15:55;;;;;;;;;;;;;;;8.07;54.82;96022.78;4185186;28;5741;-65
2024/01/07 01:17:58;;;;;;;;;;;;;;;8.03;55.00;96026.78;4185331;28;5555;-65
2024/01/07 01:20:02;;;;;;;;;;;;;;;8.08;54.76;96026.22;4184947;28;5866;-66
2024/01/07 01:22:05;;;;;;;;;;;;;;;8.06;55.12;96023.78;4185204;28;5900;-65
2024/01/07 01:24:08;;;;;;;;;;;;;;;8.09;54.70;96023.38;4184201;28;5866;-66
2024/01/07 01:26:12;;;;;;;;;;;;;;;8.14;54.64;96020.97;4184599;28;5797;-65
2024/01/07 01:28:15;;;;;;;;;;;;;;;8.18;54.81;96014.31;4185115;28;5847;-66
2024/01/07 01:30:19;;;;;;;;;;;;;;;8.15;54.57;96025.25;4185162;28;6024;-66
2024/01/07 01:32:22;;;;;;;;;;;;;;;8.11;54.87;96021.34;4184986;28;5644;-66
2024/01/07 01:34:24;;;;;;;;;;;;;;;8.11;55.18;96029.25;4184899;28;5756;-65
2024/01/07 01:36:27;;;;;;;;;;;;;;;8.05;55.28;96026.63;4184998;28;5809;-65
2024/01/07 01:38:30;;;;;;;;;;;;;;;8.07;55.24;96019.31;4184837;28;5772;-65
2024/01/07 01:40:34;;;;;;;;;;;;;;;8.11;54.97;96031.06;4184782;28;6430;-65
2024/01/07 01:42:38;;;;;;;;;;;;;;;8.10;55.33;96025.00;4184628;28;5763;-65
2024/01/07 01:44:42;;;;;;;;;;;;;;;8.08;55.04;96029.66;4184806;28;5550;-65
2024/01/07 01:46:46;;;;;;;;;;;;;;;8.07;55.09;96033.31;4184843;28;5703;-65
2024/01/07 01:48:48;;;;;;;;;;;;;;;8.00;55.55;96040.34;4184871;28;5929;-65
2024/01/07 01:50:52;;;;;;;;;;;;;;;7.89;55.78;96030.38;4184798;28;5843;-65
2024/01/07 01:52:56;;;;;;;;;;;;;;;7.80;55.87;96039.41;4184557;28;5760;-65
2024/01/07 01:55:00;;;;;;;;;;;;;;;7.75;55.88;96040.00;4184549;28;5855;-65
2024/01/07 01:57:04;;;;;;;;;;;;;;;7.72;56.39;96042.22;4184775;28;5674;-65
2024/01/07 01:59:09;;;;;;;;;;;;;;;7.72;56.42;96031.69;4184659;28;5902;-65
2024/01/07 02:01:12;;;;;;;;;;;;;;;7.76;56.33;96032.94;4184724;28;5169;-66
2024/01/07 02:03:15;;;;;;;;;;;;;;;7.69;56.52;96039.97;4184608;28;5847;-65
2024/01/07 02:05:19;;;;;;;;;;;;;;;7.64;56.73;96034.47;4184394;28;5809;-65
2024/01/07 02:07:22;;;;;;;;;;;;;;;7.64;57.08;96034.47;4183935;28;5706;-64
2024/01/07 02:09:25;;;;;;;;;;;;;;;7.66;56.81;96032.47;4183895;28;5731;-64
2024/01/07 02:11:28;;;;;;;;;;;;;;;7.52;57.08;96027.13;4184410;28;5759;-65
2024/01/07 02:13:32;;;;;;;;;;;;;;;7.50;57.21;96023.06;4184459;28;5752;-66
2024/01/07 02:15:37;;;;;;;;;;;;;;;7.49;57.20;96035.41;4184166;28;5726;-65
2024/01/07 02:17:40;;;;;;;;;;;;;;;7.54;57.36;96024.28;4184433;28;5887;-65
2024/01/07 02:19:43;;;;;;;;;;;;;;;7.58;57.03;96036.03;4184195;28;5838;-65
2024/01/07 02:21:45;;;;;;;;;;;;;;;7.55;57.17;96039.06;4184278;28;5844;-65
2024/01/07 02:23:48;;;;;;;;;;;;;;;7.52;57.33;96040.28;4184177;28;5801;-66
2024/01/07 02:25:52;;;;;;;;;;;;;;;7.55;57.12;96046.97;4184012;28;5726;-65
2024/01/07 02:27:55;;;;;;;;;;;;;;;7.61;57.23;96053.28;4184313;28;5876;-65
2024/01/07 02:29:58;;;;;;;;;;;;;;;7.58;57.29;96042.13;4184095;28;5771;-65
2024/01/07 02:32:01;;;;;;;;;;;;;;;7.60;57.28;96041.94;4184228;28;5970;-65
2024/01/07 02:34:03;;;;;;;;;;;;;;;7.61;57.52;96043.56;4176307;28;5702;-67
2024/01/07 02:36:07;;;;;;;;;;;;;;;7.63;57.47;96048.63;4184324;28;5574;-65
2024/01/07 02:38:10;;;;;;;;;;;;;;;7.69;57.72;96047.84;4183769;28;5772;-65
2024/01/07 02:40:12;;;;;;;;;;;;;;;7.73;57.57;96043.84;4183889;28;5855;-65
2024/01/07 02:42:16;;;;;;;;;;;;;;;7.77;57.45;96045.06;4183950;28;5785;-65
2024/01/07 02:44:18;;;;;;;;;;;;;;;7.62;57.81;96039.94;4183916;28;6000;-66
2024/01/07 02:46:21;;;;;;;;;;;;;;;7.54;58.34;96035.63;4183927;28;5890;-65
2024/01/07 02:48:24;;;;;;;;;;;;;;;7.49;58.44;96042.47;4184086;28;5787;-65
2024/01/07 02:50:26;;;;;;;;;;;;;;;7.49;58.58;96042.47;4183951;28;5763;-66
2024/01/07 02:52:29;;;;;;;;;;;;;;;7.45;58.96;96049.91;4183136;28;5755;-66
2024/01/07 02:54:32;;;;;;;;;;;;;;;7.33;59.12;96043.56;4183708;28;5764;-66
2024/01/07 02:56:35;;;;;;;;;;;;;;;7.41;58.92;96035.53;4184011;28;5777;-66
2024/01/07 02:58:40;;;;;;;;;;;;;;;7.42;59.47;96033.72;4183856;28;5082;-65
2024/01/07 03:00:43;;;;;;;;;;;;;;;7.33;59.71;96042.75;4183890;28;6539;-65
2024/01/07 03:02:44;;;;;;;;;;;;;;;7.14;60.43;96039.00;4183649;28;6606;-65
2024/01/07 03:04:47;;;;;;;;;;;;;;;7.06;60.71;96034.66;4183880;28;5763;-65
2024/01/07 03:06:50;;;;;;;;;;;;;;;7.00;61.33;96035.41;4183812;28;5579;-65
2024/01/07 03:08:54;;;;;;;;;;;;;;;7.00;61.03;96044.09;4183760;28;5707;-65
2024/01/07 03:10:57;;;;;;;;;;;;;;;7.05;61.25;96043.56;4183629;28;5703;-64
2024/01/07 03:13:01;;;;;;;;;;;;;;;6.96;61.48;96032.34;4184032;28;5799;-65
2024/01/07 03:15:08;;;;;;;;;;;;;;;6.94;61.68;96034.38;4183551;28;6607;-65
2024/01/07 03:17:12;;;;;;;;;;;;;;;6.91;61.35;96034.75;4183896;28;5710;-65
2024/01/07 03:19:15;;;;;;;;;;;;;;;6.94;61.40;96023.84;4183404;28;5930;-64
2024/01/07 03:21:19;;;;;;;;;;;;;;;6.92;61.18;96036.38;4183645;28;5706;-64
2024/01/07 03:23:22;;;;;;;;;;;;;;;7.07;61.33;96046.00;4183591;28;5785;-64
2024/01/07 03:25:25;;;;;;;;;;;;;;;7.11;60.89;96039.34;4183318;28;5867;-65
2024/01/07 03:27:27;;;;;;;;;;;;;;;7.12;61.02;96033.09;4183624;28;5710;-66
2024/01/07 03:29:30;;;;;;;;;;;;;;;7.03;60.88;96035.06;4183652;28;5752;-65
2024/01/07 03:31:34;;;;;;;;;;;;;;;7.04;60.87;96041.94;4183849;28;5675;-65
2024/01/07 03:33:38;;;;;;;;;;;;;;;7.00;61.22;96038.03;4183512;28;5775;-65
2024/01/07 03:35:41;;;;;;;;;;;;;;;7.04;60.93;96030.59;4183765;28;5768;-65
2024/01/07 03:37:43;;;;;;;;;;;;;;;6.99;60.46;96031.97;4183640;28;5710;-65
2024/01/07 03:39:47;;;;;;;;;;;;;;;6.91;60.82;96037.38;4183115;28;5674;-65
2024/01/07 03:41:50;;;;;;;;;;;;;;;6.96;61.27;96042.88;4183695;28;5550;-65
2024/01/07 03:43:53;;;;;;;;;;;;;;;6.93;61.19;96045.88;4183656;28;5779;-65
2024/01/07 03:45:56;;;;;;;;;;;;;;;6.92;61.26;96036.38;4183769;28;5760;-65
2024/01/07 03:48:00;;;;;;;;;;;;;;;6.95;61.24;96030.72;4185356;28;5770;-65
2024/01/07 03:50:04;;;;;;;;;;;;;;;6.87;61.45;96044.00;4178930;28;5558;-65
2024/01/07 03:52:07;;;;;;;;;;;;;;;6.86;61.58;96031.84;4186676;28;5760;-64
2024/01/07 03:54:10;;;;;;;;;;;;;;;6.86;61.50;96031.03;4186116;28;5782;-64
2024/01/07 03:56:13;;;;;;;;;;;;;;;6.90;61.32;96032.28;4186657;28;5788;-64
2024/01/07 03:58:16;;;;;;;;;;;;;;;6.90;61.60;96038.34;4186422;28;5850;-65
2024/01/07 04:00:20;;;;;;;;;;;;;;;6.91;61.40;96040.00;4186478;28;5862;-65
2024/01/07 04:02:23;;;;;;;;;;;;;;;6.96;61.34;96024.47;4186710;28;5759;-65
2024/01/07 04:04:26;;;;;;;;;;;;;;;7.05;60.81;96045.38;4186281;28;5854;-65
2024/01/07 04:06:30;;;;;;;;;;;;;;;6.97;61.20;96033.97;4186443;28;5714;-65
2024/01/07 04:08:33;;;;;;;;;;;;;;;6.99;61.03;96031.97;4186183;28;5801;-64
2024/01/07 04:10:35;;;;;;;;;;;;;;;7.04;61.01;96030.59;4185614;28;5642;-65
2024/01/07 04:12:38;;;;;;;;;;;;;;;7.06;60.90;96044.38;4186140;28;5819;-64
2024/01/07 04:14:59;;;;;;;;;;;;;;;6.98;61.19;96022.47;4176437;28;5670;-65
2024/01/07 04:17:22;;;;;;;;;;;;;;;7.06;60.82;96020.72;4185506;28;5875;-64
2024/01/07 04:19:27;;;;;;;;;;;;;;;7.04;60.85;96034.06;4185802;28;5554;-64
2024/01/07 04:21:30;;;;;;;;;;;;;;;7.07;60.84;96022.34;4186193;28;6385;-66
2024/01/07 04:23:33;;;;;;;;;;;;;;;7.09;60.45;96026.41;4186012;28;5718;-65
2024/01/07 04:25:36;;;;;;;;;;;;;;;7.11;60.32;96052.50;4185976;28;5823;-66
2024/01/07 04:27:38;;;;;;;;;;;;;;;7.07;59.78;96023.16;4185718;28;5719;-65
2024/01/07 04:29:41;;;;;;;;;;;;;;;7.04;60.45;96031.41;4186080;28;5743;-65
2024/01/07 04:31:44;;;;;;;;;;;;;;;7.06;60.06;96031.22;4185776;28;5654;-64
2024/01/07 04:33:47;;;;;;;;;;;;;;;7.09;60.20;96036.91;4185509;28;5755;-65
2024/01/07 04:35:51;;;;;;;;;;;;;;;7.06;60.25;96026.78;4185655;28;5851;-64
2024/01/07 04:37:54;;;;;;;;;;;;;;;7.09;59.88;96033.47;4185836;28;5842;-65
2024/01/07 04:39:57;;;;;;;;;;;;;;;7.10;60.00;96021.94;4185594;28;5797;-65
2024/01/07 04:42:00;;;;;;;;;;;;;;;7.11;60.10;96029.63;4185636;28;5861;-65
2024/01/07 04:44:03;;;;;;;;;;;;;;;7.10;59.95;96027.22;4185703;28;7165;-65
2024/01/07 04:46:06;;;;;;;;;;;;;;;7.04;60.10;96038.50;4185620;28;5772;-65
2024/01/07 04:48:09;;;;;;;;;;;;;;;7.05;60.33;96034.84;4185706;28;5760;-66
2024/01/07 04:50:13;;;;;;;;;;;;;;;7.01;60.23;96039.66;4185726;28;5764;-66
2024/01/07 04:52:18;;;;;;;;;;;;;;;7.08;60.14;96045.00;4185567;28;5740;-64
2024/01/07 04:54:21;;;;;;;;;;;;;;;7.01;60.09;96072.00;4185370;28;5990;-65
2024/01/07 04:56:24;;;;;;;;;;;;;;;6.89;60.51;96046.44;4185576;28;5764;-65
2024/01/07 04:58:27;;;;;;;;;;;;;;;6.87;60.72;96048.44;4184825;28;5755;-65
2024/01/07 05:00:30;;;;;;;;;;;;;;;6.87;60.57;96059.75;4185376;28;5829;-65
2024/01/07 05:02:33;;;;;;;;;;;;;;;6.90;60.97;96046.22;4185558;28;5858;-65
2024/01/07 05:04:36;;;;;;;;;;;;;;;6.95;60.54;96049.13;4185553;28;5722;-65
2024/01/07 05:06:39;;;;;;;;;;;;;;;6.99;59.95;96058.25;4185323;28;5831;-65
2024/01/07 05:08:43;;;;;;;;;;;;;;;6.98;60.54;96054.00;4185157;28;5689;-65
2024/01/07 05:10:47;;;;;;;;;;;;;;;7.05;60.23;96051.44;4184973;28;5847;-65
2024/01/07 05:12:50;;;;;;;;;;;;;;;7.12;60.28;96056.75;4181863;28;5781;-64
2024/01/07 05:14:53;;;;;;;;;;;;;;;7.08;59.79;96055.50;4183804;28;5642;-64
2024/01/07 05:16:56;;;;;;;;;;;;;;;7.12;59.85;96062.00;4173864;28;5717;-64
2024/01/07 05:18:59;;;;;;;;;;;;;;;7.16;59.98;96063.25;4185288;28;5838;-64
2024/01/07 05:21:02;;;;;;;;;;;;;;;7.13;59.52;96063.63;4169365;28;5735;-66
2024/01/07 05:23:05;;;;;;;;;;;;;;;7.13;60.03;96068.88;4185286;28;5702;-66
2024/01/07 05:25:09;;;;;;;;;;;;;;;7.16;59.93;96058.00;4185057;28;5642;-65
2024/01/07 05:27:12;;;;;;;;;;;;;;;7.29;60.02;96073.88;4185022;28;5714;-64
2024/01/07 05:29:14;;;;;;;;;;;;;;;7.24;59.44;96065.72;4175841;28;5654;-66
2024/01/07 05:31:17;;;;;;;;;;;;;;;7.18;60.16;96063.88;4185204;28;5571;-65
2024/01/07 05:33:21;;;;;;;;;;;;;;;7.13;59.93;96071.50;4185226;28;5767;-67
2024/01/07 05:35:23;;;;;;;;;;;;;;;7.15;60.15;96072.16;4185258;28;5755;-65
2024/01/07 05:37:26;;;;;;;;;;;;;;;7.18;60.27;96071.75;4185068;28;5816;-66
2024/01/07 05:39:28;;;;;;;;;;;;;;;7.20;59.69;96080.28;4184302;28;5781;-65
2024/01/07 05:41:32;;;;;;;;;;;;;;;7.13;60.18;96067.06;4176840;28;5744;-65
2024/01/07 05:43:37;;;;;;;;;;;;;;;7.18;59.82;96074.41;4185144;28;5748;-65
2024/01/07 05:45:40;;;;;;;;;;;;;;;7.19;59.98;96084.72;4184603;28;5760;-66
2024/01/07 05:47:43;;;;;;;;;;;;;;;7.20;60.09;96075.00;4184806;28;5711;-64
2024/01/07 05:49:46;;;;;;;;;;;;;;;7.28;59.86;96080.16;4184769;28;5562;-65
2024/01/07 05:51:49;;;;;;;;;;;;;;;7.31;59.72;96079.75;4184890;28;5833;-65
2024/01/07 05:53:52;;;;;;;;;;;;;;;7.38;59.65;96083.25;4184991;28;5722;-64
2024/01/07 05:55:55;;;;;;;;;;;;;;;7.40;59.62;96080.44;4184390;28;5763;-66
2024/01/07 05:58:00;;;;;;;;;;;;;;;7.40;59.53;96088.34;4184729;28;5716;-66
2024/01/07 06:00:04;;;;;;;;;;;;;;;7.40;59.41;96085.69;4184748;28;5813;-66
2024/01/07 06:02:07;;;;;;;;;;;;;;;7.42;59.60;96091.56;4184479;28;5546;-66
2024/01/07 06:04:09;;;;;;;;;;;;;;;7.46;59.44;96091.00;4184730;28;6242;-65
2024/01/07 06:06:14;;;;;;;;;;;;;;;7.49;59.08;96090.63;4184469;28;5951;-66
2024/01/07 06:08:17;;;;;;;;;;;;;;;7.54;59.22;96090.88;4178346;28;5664;-65
2024/01/07 06:10:20;;;;;;;;;;;;;;;7.61;58.99;96088.28;4179099;28;5797;-64
2024/01/07 06:12:24;;;;;;;;;;;;;;;7.66;59.27;96100.84;4180183;28;6427;-65
2024/01/07 06:14:28;;;;;;;;;;;;;;;7.69;58.74;96090.75;4182715;28;5715;-66
2024/01/07 06:16:31;;;;;;;;;;;;;;;7.71;59.18;96093.22;4184101;28;5098;-65
2024/01/07 06:18:34;;;;;;;;;;;;;;;7.76;58.60;96106.59;4179298;28;5719;-65
2024/01/07 06:20:41;;;;;;;;;;;;;;;7.76;58.44;96098.72;4178783;28;5660;-65
2024/01/07 06:22:43;;;;;;;;;;;;;;;7.80;58.25;96105.19;4181966;28;6448;-66
2024/01/07 06:24:46;;;;;;;;;;;;;;;7.75;58.26;96115.50;4183067;28;5634;-65
2024/01/07 06:26:49;;;;;;;;;;;;;;;7.72;58.55;96106.19;4176668;28;5666;-65
2024/01/07 06:28:52;;;;;;;;;;;;;;;7.72;58.61;96115.91;4173178;28;5884;-66
2024/01/07 06:30:56;;;;;;;;;;;;;;;7.72;58.70;96110.63;4182645;28;5758;-66
2024/01/07 06:33:02;;;;;;;;;;;;;;;7.75;58.28;96123.41;4184544;28;5090;-66
2024/01/07 06:35:05;;;;;;;;;;;;;;;7.64;58.42;96123.91;4183925;28;5710;-66
2024/01/07 06:37:10;;;;;;;;;;;;;;;7.61;58.63;96113.78;4183697;28;5699;-66
2024/01/07 06:39:13;;;;;;;;;;;;;;;7.69;58.61;96118.88;4177933;28;5778;-65
2024/01/07 06:41:17;;;;;;;;;;;;;;;7.71;58.81;96127.44;4180936;28;5731;-66
2024/01/07 06:43:20;;;;;;;;;;;;;;;7.74;58.52;96127.03;4177393;28;5860;-66
2024/01/07 06:45:24;;;;;;;;;;;;;;;7.74;58.43;96133.09;4183298;28;5942;-65
2024/01/07 06:47:28;;;;;;;;;;;;;;;7.76;58.26;96127.66;4180953;28;5752;-66
2024/01/07 06:49:31;;;;;;;;;;;;;;;7.76;58.57;96132.91;4179984;28;6006;-66
2024/01/07 06:51:34;;;;;;;;;;;;;;;7.68;58.62;96135.69;4175748;28;5718;-66
2024/01/07 06:53:37;;;;;;;;;;;;;;;7.66;58.62;96130.59;4184126;28;5764;-65
2024/01/07 06:55:42;;;;;;;;;;;;;;;7.58;58.63;96147.34;4177330;28;5399;-66
2024/01/07 06:57:44;;;;;;;;;;;;;;;7.47;59.09;96144.41;4180731;28;6947;-65
2024/01/07 06:59:46;;;;;;;;;;;;;;;7.44;59.04;96139.53;4183313;28;5813;-65
2024/01/07 07:01:49;;;;;;;;;;;;;;;7.35;59.46;96141.47;4183276;28;5797;-65
2024/01/07 07:03:54;;;;;;;;;;;;;;;7.39;59.50;96141.94;4183952;28;5802;-66
2024/01/07 07:05:57;;;;;;;;;;;;;;;7.42;59.27;96141.53;4171832;28;5785;-65
2024/01/07 07:08:00;;;;;;;;;;;;;;;7.45;59.21;96147.22;4181723;28;5637;-65
2024/01/07 07:10:03;;;;;;;;;;;;;;;7.46;58.87;96143.59;4183592;28;5772;-65
2024/01/07 07:12:07;;;;;;;;;;;;;;;7.46;59.24;96156.75;4184131;28;5795;-64
2024/01/07 07:14:10;;;;;;;;;;;;;;;7.43;59.21;96143.97;4183733;28;5838;-65
2024/01/07 07:16:13;;;;;;;;;;;;;;;7.49;59.16;96156.38;4183603;28;5649;-64
2024/01/07 07:18:15;;;;;;;;;;;;;;;7.53;59.22;96154.19;4183170;28;5764;-64
2024/01/07 07:20:20;;;;;;;;;;;;;;;7.58;58.89;96157.03;4177701;28;5772;-65
2024/01/07 07:22:22;;;;;;;;;;;;;;;7.54;58.60;96156.63;4184387;28;5718;-65
2024/01/07 07:24:25;;;;;;;;;;;;;;;7.55;59.15;96158.25;4185680;28;5641;-65
2024/01/07 07:26:27;;;;;;;;;;;;;;;7.62;58.47;96154.88;4186986;28;5768;-65
2024/01/07 07:28:30;;;;;;;;;;;;;;;7.64;58.97;96153.66;4187151;28;5554;-65
2024/01/07 07:30:34;;;;;;;;;;;;;;;7.68;58.74;96154.91;4186991;28;5729;-65
2024/01/07 07:32:41;;;;;;;;;;;;;;;7.67;58.42;96155.09;4186956;28;5755;-67
2024/01/07 07:34:43;;;;;;;;;;;;;;;7.58;58.34;96157.03;4186948;28;5751;-65
2024/01/07 07:36:47;;;;;;;;;;;;;;;7.55;58.66;96158.25;4186737;28;5550;-65
2024/01/07 07:38:50;;;;;;;;;;;;;;;7.58;58.50;96168.38;4183881;28;6073;-66
2024/01/07 07:40:53;;;;;;;;;;;;;;;7.63;58.67;96153.88;4186498;28;5706;-66
2024/01/07 07:42:56;;;;;;;;;;;;;;;7.72;58.51;96160.63;4185631;28;5801;-66
2024/01/07 07:45:00;;;;;;;;;;;;;;;7.77;58.41;96158.22;4186690;28;5755;-65
2024/01/07 07:47:03;;;;;;;;;;;;;;;7.76;58.03;96167.94;4186592;28;5866;-64
2024/01/07 07:49:06;;;;;;;;;;;;;;;7.70;58.16;96160.81;4186725;28;5653;-66
2024/01/07 07:51:08;;;;;;;;;;;;;;;7.65;58.16;96163.19;4184153;28;5831;-66
2024/01/07 07:53:12;;;;;;;;;;;;;;;7.64;58.28;96163.38;4186608;28;5768;-65
2024/01/07 07:55:15;;;;;;;;;;;;;;;7.72;58.09;96168.50;4183065;28;5839;-64
2024/01/07 07:57:21;;;;;;;;;;;;;;;7.75;58.16;96168.13;4167429;28;6353;-65
2024/01/07 07:59:23;;;;;;;;;;;;;;;7.75;58.25;96163.69;4186587;28;6243;-66
2024/01/07 08:01:26;;;;;;;;;;;;;;;7.76;57.54;96161.84;4186287;28;5698;-65
2024/01/07 08:03:30;;;;;;;;;;;;;;;7.73;57.83;96170.13;4186615;28;5775;-65
2024/01/07 08:05:33;;;;;;;;;;;;;;;7.77;57.62;96171.38;4186464;28;5726;-65
2024/01/07 08:07:36;;;;;;;;;;;;;;;7.71;57.82;96174.78;4186553;28;5653;-65
2024/01/07 08:09:40;;;;;;;;;;;;;;;7.66;57.95;96170.06;4186058;28;5566;-65
2024/01/07 08:11:43;;;;;;;;;;;;;;;7.73;57.94;96170.13;4186381;28;5760;-65
2024/01/07 08:13:47;;;;;;;;;;;;;;;7.80;57.76;96170.97;4186102;28;6017;-66
2024/01/07 08:15:50;;;;;;;;;;;;;;;7.77;57.48;96181.91;4186341;28;5594;-66
2024/01/07 08:17:56;;;;;;;;;;;;;;;7.66;57.67;96164.81;4185311;28;5641;-66
2024/01/07 08:20:01;;;;;;;;;;;;;;;7.70;57.48;96173.97;4182844;28;5638;-65
2024/01/07 08:22:05;;;;;;;;;;;;;;;7.66;57.14;96180.59;4186286;28;5730;-65
2024/01/07 08:24:10;;;;;;;;;;;;;;;7.58;57.17;96176.28;4182999;28;5742;-65
2024/01/07 08:26:22;;;;;;;;;;;;;;;7.52;57.57;96182.31;4178850;28;5778;-65
2024/01/07 08:28:24;;;;;;;;;;;;;;;7.44;57.85;96181.59;4186237;28;5890;-65
2024/01/07 08:30:28;;;;;;;;;;;;;;;7.46;57.85;96172.53;4185928;28;5565;-66
2024/01/07 08:32:31;;;;;;;;;;;;;;;7.56;58.05;96175.66;4185702;28;5718;-65
2024/01/07 08:34:34;;;;;;;;;;;;;;;7.59;57.81;96185.00;4185808;28;5722;-65
2024/01/07 08:36:39;;;;;;;;;;;;;;;7.57;57.84;96177.28;4186002;28;5726;-67
2024/01/07 08:38:42;;;;;;;;;;;;;;;7.61;57.70;96171.66;4183803;28;5749;-67
2024/01/07 08:40:45;;;;;;;;;;;;;;;7.58;57.81;96185.97;4179084;28;5797;-65
2024/01/07 08:42:52;;;;;;;;;;;;;;;7.55;57.93;96181.91;4185685;28;5637;-66
2024/01/07 08:44:55;;;;;;;;;;;;;;;7.54;57.74;96177.66;4184021;28;5566;-65
2024/01/07 08:47:00;;;;;;;;;;;;;;;7.62;57.87;96183.81;4182907;28;5721;-66
2024/01/07 08:49:04;;;;;;;;;;;;;;;7.77;57.83;96181.91;4184728;28;5747;-65
2024/01/07 08:51:07;;;;;;;;;;;;;;;7.80;57.47;96182.31;4185168;28;5835;-66
2024/01/07 08:53:12;;;;;;;;;;;;;;;7.77;57.50;96177.44;4183239;28;5787;-65
2024/01/07 08:55:15;;;;;;;;;;;;;;;7.78;57.89;96189.59;4185196;28;5722;-65
2024/01/07 08:57:18;;;;;;;;;;;;;;;7.86;57.51;96189.47;4168063;28;5662;-66
2024/01/07 08:59:23;;;;;;;;;;;;;;;7.87;57.47;96199.00;4184038;28;5854;-66
2024/01/07 09:01:26;;;;;;;;;;;;;;;7.81;57.21;96189.25;4185375;28;5839;-65
2024/01/07 09:03:29;;;;;;;;;;;;;;;7.76;57.39;96191.63;4185315;28;5726;-66
2024/01/07 09:05:33;;;;;;;;;;;;;;;7.72;57.47;96195.63;4179380;28;5629;-65
2024/01/07 09:07:37;;;;;;;;;;;;;;;7.71;57.66;96198.47;4185169;28;5643;-66
2024/01/07 09:09:39;;;;;;;;;;;;;;;7.77;57.64;96202.94;4182295;28;5827;-66
2024/01/07 09:11:45;;;;;;;;;;;;;;;7.75;57.32;96203.16;4182172;28;5308;-65
2024/01/07 09:13:48;;;;;;;;;;;;;;;7.74;57.37;96203.34;4184337;28;7254;-66
2024/01/07 09:15:53;;;;;;;;;;;;;;;7.76;57.90;96217.13;4185135;28;5748;-66
2024/01/07 09:17:55;;;;;;;;;;;;;;;7.72;57.18;96203.53;4184930;28;5720;-64
2024/01/07 09:19:58;;;;;;;;;;;;;;;7.64;57.58;96208.09;4185139;28;5539;-64
2024/01/07 09:22:02;;;;;;;;;;;;;;;7.62;57.87;96199.59;4183857;28;5748;-65
2024/01/07 09:24:05;;;;;;;;;;;;;;;7.68;58.00;96214.59;4184375;28;5768;-64
2024/01/07 09:26:11;;;;;;;;;;;;;;;7.71;57.77;96212.44;4185119;28;5951;-68
2024/01/07 09:28:14;;;;;;;;;;;;;;;7.68;57.70;96217.22;4179451;28;5716;-68
2024/01/07 09:30:18;;;;;;;;;;;;;;;7.62;57.77;96218.00;4184041;28;5811;-68
2024/01/07 09:32:21;;;;;;;;;;;;;;;7.65;58.08;96217.63;4183247;28;5550;-68
2024/01/07 09:34:24;;;;;;;;;;;;;;;7.78;57.98;96223.81;4181626;28;5539;-68
2024/01/07 09:36:27;;;;;;;;;;;;;;;7.81;57.53;96225.25;4181856;28;5755;-68
2024/01/07 09:38:32;;;;;;;;;;;;;;;7.80;57.75;96215.72;4184807;28;5710;-69
2024/01/07 09:40:35;;;;;;;;;;;;;;;7.85;57.76;96221.25;4184787;28;5662;-70
2024/01/07 09:42:39;;;;;;;;;;;;;;;7.83;57.56;96216.19;4184516;28;5854;-68
2024/01/07 09:44:42;;;;;;;;;;;;;;;7.85;57.87;96221.25;4184003;28;5681;-69
2024/01/07 09:46:51;;;;;;;;;;;;;;;7.88;57.75;96220.84;4184682;28;5801;-69
2024/01/07 09:48:54;;;;;;;;;;;;;;;7.89;57.84;96219.84;4184818;28;5801;-69
2024/01/07 09:51:01;;;;;;;;;;;;;;;7.93;57.55;96220.28;4184862;28;5785;-70
2024/01/07 09:53:05;;;;;;;;;;;;;;;8.02;57.60;96227.84;4184920;28;5756;-69
2024/01/07 09:55:10;;;;;;;;;;;;;;;7.98;57.56;96221.34;4184124;28;5649;-69
2024/01/07 09:57:13;;;;;;;;;;;;;;;8.03;56.83;96218.94;4185009;28;5752;-68
2024/01/07 09:59:17;;;;;;;;;;;;;;;8.04;57.05;96219.75;4184762;28;5751;-69
2024/01/07 10:01:20;;;;;;;;;;;;;;;8.06;57.15;96223.84;4184682;28;5728;-69
2024/01/07 10:03:24;;;;;;;;;;;;;;;8.09;57.24;96207.66;4184539;28;5703;-69
2024/01/07 10:05:28;;;;;;;;;;;;;;;8.14;57.23;96221.06;4182575;28;5817;-69
2024/01/07 10:07:32;;;;;;;;;;;;;;;8.23;56.97;96216.47;4185986;28;5906;-70
2024/01/07 10:09:36;;;;;;;;;;;;;;;8.26;57.08;96220.53;4182497;28;5550;-70
2024/01/07 10:11:39;;;;;;;;;;;;;;;8.15;56.75;96212.16;4170615;28;5649;-69
2024/01/07 10:13:42;;;;;;;;;;;;;;;8.15;56.94;96204.28;4184509;28;5551;-69
2024/01/07 10:15:45;;;;;;;;;;;;;;;8.25;56.55;96208.38;4184634;28;5707;-70
2024/01/07 10:17:48;;;;;;;;;;;;;;;8.34;57.06;96207.22;4184041;28;5562;-70
2024/01/07 10:19:51;;;;;;;;;;;;;;;8.30;55.79;96208.63;4184320;28;5707;-70
2024/01/07 10:22:05;;;;;;;;;;;;;;;8.22;56.73;96212.19;4184650;28;5767;-69
2024/01/07 10:24:08;;;;;;;;;;;;;;;8.27;56.41;96208.97;4176104;28;5642;-70
2024/01/07 10:26:11;;;;;;;;;;;;;;;8.29;56.50;96214.88;4183123;28;5862;-68
2024/01/07 10:28:29;;;;;;;;;;;;;;;8.20;56.17;96210.78;4177766;28;5818;-68
2024/01/07 10:30:32;;;;;;;;;;;;;;;8.25;56.56;96211.81;4184275;28;5722;-69
2024/01/07 10:32:35;;;;;;;;;;;;;;;8.27;56.60;96216.88;4184308;28;5747;-69
2024/01/07 10:34:38;;;;;;;;;;;;;;;8.28;56.51;96208.00;4184213;28;5706;-71
2024/01/07 10:36:43;;;;;;;;;;;;;;;8.35;56.28;96208.88;4182452;28;5786;-70
2024/01/07 10:38:47;;;;;;;;;;;;;;;8.35;56.06;96212.31;4183853;28;5769;-70
2024/01/07 10:40:53;;;;;;;;;;;;;;;8.27;55.79;96203.72;4183115;28;5767;-70
2024/01/07 10:42:56;;;;;;;;;;;;;;;8.24;56.04;96212.81;4184086;28;5783;-69
2024/01/07 10:45:00;;;;;;;;;;;;;;;8.15;56.21;96200.81;4179227;28;5833;-70
2024/01/07 10:47:07;;;;;;;;;;;;;;;8.15;56.64;96206.06;4183104;28;5642;-70
2024/01/07 10:49:20;;;;;;;;;;;;;;;8.21;56.51;96205.31;4182887;28;6464;-69
2024/01/07 10:51:23;;;;;;;;;;;;;;;8.24;56.29;96209.38;4178645;28;5890;-69
2024/01/07 10:53:29;;;;;;;;;;;;;;;8.22;56.08;96214.03;4177723;28;5956;-70
2024/01/07 10:55:36;;;;;;;;;;;;;;;8.22;56.30;96208.75;4183461;28;5953;-69
2024/01/07 10:57:44;;;;;;;;;;;;;;;8.24;56.33;96207.56;4183081;28;5821;-69
2024/01/07 10:59:49;;;;;;;;;;;;;;;8.29;56.04;96199.09;4183795;28;5748;-70